1996 ATU (1996064S12155)


On this page: IBTrACS data - Map and Plots - Positions - Intensities - Original source data

Summary

Start Mar 4
End Mar 18
Basin SP
LMI 55 kt
Sources jtwc_sh
nadi
wellington
neumann
In WMO? Yes
Previous storm 1996 TD0228 (WP)
Previous in basin 1996 DENNIS (SP)
Concurrent storms 1996 FLOSSY (SI)
1996 ATU (SP)
1996 KIRSTY (SI)
1996 ETHEL (SP)
1996 ZAKA (SP)
1996 GUYLIANNE (SI)
Next in basin 1996 ETHEL (SP)
Next storm 1996 KIRSTY (SI)

top of page IBTrACS Data: File Access

top of page HURSAT Data: File Access

Image of storm

top of page Plots:

Map of storm track will not appear if FTP is down
Time series of cyclone Maximum Sustained Wind will not appear if FTP is down
Time series of cyclone Minimum Central Pressure will not appear if FTP is down

top of page Track Data:Position

jtwc_sh nadi wellington neumann
Date Lat Lon Lat Lon Lat Lon Lat Lon
1996-03-04 06:00:00 -12.0 155.0 -12.0 155.0
1996-03-04 12:00:00 -12.1 155.1 -12.1 155.1
1996-03-04 18:00:00 -12.2 155.2 -12.2 155.2
1996-03-05 00:00:00 -12.3 155.3 -12.3 155.3
1996-03-05 06:00:00 -12.4 155.4 -12.4 155.4
1996-03-05 12:00:00 -12.5 155.5 -12.5 155.5
1996-03-05 18:00:00 -12.6 155.6 -12.6 155.6
1996-03-06 00:00:00 -12.8 155.8 -12.8 155.8
1996-03-06 06:00:00 -13.0 156.0 -13.0 156.0
1996-03-06 12:00:00 -13.3 156.3 -13.3 156.3
1996-03-06 18:00:00 -13.5 156.5 -13.5 156.5
1996-03-07 00:00:00 -13.7 156.7 -13.7 156.7
1996-03-07 06:00:00 -13.9 156.9 -13.9 156.9
1996-03-07 12:00:00 -14.1 157.2 -14.1 157.2
1996-03-07 18:00:00 -14.2 157.4 -14.2 157.4
1996-03-08 00:00:00 -14.3 157.6 -14.3 157.6
1996-03-08 06:00:00 -14.4 157.8 -14.4 157.8
1996-03-08 12:00:00 -14.5 158.1 -14.5 158.1
1996-03-08 18:00:00 -14.6 158.3 -14.6 158.3
1996-03-09 00:00:00 -14.7 158.6 -14.7 158.6
1996-03-09 06:00:00 -14.9 158.9 -14.9 158.9
1996-03-09 12:00:00 -15.2 159.4 -15.2 159.4
1996-03-09 18:00:00 -16.0 160.6 -16.0 160.6
1996-03-10 00:00:00 -16.9 161.8 -16.9 161.8
1996-03-10 06:00:00 -17.9 163.0 -17.9 163.0
jtwc_sh nadi wellington neumann
1996-03-10 12:00:00 -18.8 164.4 -18.8 164.4
1996-03-10 18:00:00 -19.7 166.1 -20.3 167.4 -20.3 167.4 -19.7 166.1
1996-03-11 00:00:00 -20.8 167.7 -21.0 168.0 -21.0 168.0 -20.8 167.7
1996-03-11 06:00:00 -21.3 168.9 -21.5 168.5 -21.5 168.5 -21.3 168.9
1996-03-11 12:00:00 -21.5 169.8 -21.8 169.4 -21.8 169.4 -21.5 169.8
1996-03-11 18:00:00 -21.7 170.4 -21.5 170.3 -21.5 170.3 -21.7 170.4
1996-03-12 00:00:00 -21.9 170.9 -21.7 170.8 -21.7 170.8 -21.9 170.9
1996-03-12 06:00:00 -22.0 171.3 -21.9 171.0 -21.9 171.0 -22.0 171.3
1996-03-12 12:00:00 -22.1 171.7 -22.3 171.3 -22.3 171.3 -22.1 171.7
1996-03-12 18:00:00 -22.6 171.7 -22.6 171.4 -22.6 171.4 -22.6 171.7
1996-03-13 00:00:00 -23.1 171.5 -23.3 171.5 -23.3 171.5 -23.1 171.5
1996-03-13 06:00:00 -23.8 171.6 -24.0 171.7 -24.0 171.7 -23.8 171.6
1996-03-13 12:00:00 -24.4 171.9 -24.6 171.8 -24.6 171.8 -24.4 171.9
1996-03-13 18:00:00 -25.0 172.6 -25.5 172.4 -25.2 172.5 -25.0 172.6
1996-03-14 00:00:00 -25.5 173.3 -26.0 173.5 -25.5 173.3
1996-03-14 06:00:00 -26.8 174.3
1996-03-14 12:00:00 -27.6 175.2
1996-03-14 18:00:00 -29.2 176.4
1996-03-15 00:00:00 -31.0 177.6
1996-03-15 06:00:00 -33.0 180.0
1996-03-15 12:00:00 -36.5 -177.5
1996-03-15 18:00:00 -41.0 -176.0
1996-03-16 00:00:00 -44.2 -176.0
1996-03-16 06:00:00 -47.3 -176.5
jtwc_sh nadi wellington neumann
1996-03-16 12:00:00 -48.0 176.5
1996-03-16 18:00:00 -47.0 176.5
1996-03-17 00:00:00 -47.0 178.5
1996-03-17 06:00:00 -47.5 179.8
1996-03-17 12:00:00 -48.0 -179.0
1996-03-17 18:00:00 -49.0 -175.0
1996-03-18 00:00:00 -49.0 -171.5

top of pageTrack Data:Intensity

jtwc_sh nadi wellington neumann
Date Wind Pres Wind Pres Wind Pres Wind Pres
1996-03-04 06:00:00 20. 20.
1996-03-04 12:00:00 20. 20.
1996-03-04 18:00:00 20. 20.
1996-03-05 00:00:00 20. 20.
1996-03-05 06:00:00 20. 20.
1996-03-05 12:00:00 20. 20.
1996-03-05 18:00:00 20. 20.
1996-03-06 00:00:00 20. 20.
1996-03-06 06:00:00 20. 20.
1996-03-06 12:00:00 20. 20.
1996-03-06 18:00:00 20. 20.
1996-03-07 00:00:00 20. 20.
1996-03-07 06:00:00 20. 20.
1996-03-07 12:00:00 20. 20.
1996-03-07 18:00:00 20. 20.
1996-03-08 00:00:00 20. 20.
1996-03-08 06:00:00 20. 20.
1996-03-08 12:00:00 20. 20.
1996-03-08 18:00:00 20. 20.
1996-03-09 00:00:00 20. 20.
1996-03-09 06:00:00 20. 20.
1996-03-09 12:00:00 20. 20.
1996-03-09 18:00:00 25. 25.
1996-03-10 00:00:00 25. 25.
1996-03-10 06:00:00 25. 25.
jtwc_sh nadi wellington neumann
1996-03-10 12:00:00 30. 30.
1996-03-10 18:00:00 35. 30. 997. 30. 997. 35.
1996-03-11 00:00:00 40. 30. 997. 30. 997. 40.
1996-03-11 06:00:00 40. 35. 996. 35. 996. 40.
1996-03-11 12:00:00 40. 35. 996. 35. 996. 40.
1996-03-11 18:00:00 45. 35. 995. 35. 995. 45.
1996-03-12 00:00:00 50. 40. 990. 40. 990. 50.
1996-03-12 06:00:00 55. 45. 987. 45. 987. 55.
1996-03-12 12:00:00 55. 45. 987. 45. 987. 55.
1996-03-12 18:00:00 55. 45. 987. 45. 987. 55.
1996-03-13 00:00:00 50. 40. 990. 40. 990. 50.
1996-03-13 06:00:00 45. 35. 995. 35. 995. 45.
1996-03-13 12:00:00 35. 35. 996. 35. 996. 35.
1996-03-13 18:00:00 30. 35. 997. 30. 997. 30.
1996-03-14 00:00:00 30. 30. 997. 30.
1996-03-14 06:00:00 30. 997.
1996-03-14 12:00:00 30. 997.
1996-03-14 18:00:00 30. 997.
1996-03-15 00:00:00 30. 997.
1996-03-15 06:00:00 30. 997.
1996-03-15 12:00:00 30. 997.
1996-03-15 18:00:00 35. 995.
1996-03-16 00:00:00 40. 990.
1996-03-16 06:00:00 40. 990.
jtwc_sh nadi wellington neumann
1996-03-16 12:00:00 40. 990.
1996-03-16 18:00:00 40. 990.
1996-03-17 00:00:00 35. 995.
1996-03-17 06:00:00 30. 997.
1996-03-17 12:00:00 30. 997.
1996-03-17 18:00:00 30. 997.
1996-03-18 00:00:00 30. 997.

top of page Links to source data

Source Source file Format
jtwc_sh bsh211996.txt ATCF
nadi RSMC-Nadi-1995-96-BT-Data.txt:Line=32:ATU Text table
wellington TC_BT_1967_2006.csv:Line=5051:ATU Text table
neumann tracks.sh:Storm=1057:ATU:BSH211996:JTWC&NZeal19048 HURDAT